Time;durP1;ratioP1;P1;durP2;ratioP2;P2;SDS_P1;SDS_P2;PMS_P1;PMS_P2;Temp;Humidity;BMP_temperature;BMP_pressure;BME280_temperature;BME280_humidity;BME280_pressure;Samples;Min_cycle;Max_cycle;Signal;HPM_P1;HPM_P2
2021/06/25 00:00:13;;;;;;;29.30;6.35;;;;;;;20.33;89.91;99428.48;1703438;82;21016;-69
2021/06/25 00:02:40;;;;;;;21.75;4.80;;;;;;;20.25;89.88;99428.20;1684257;83;21476;-69
2021/06/25 00:05:09;;;;;;;20.40;6.08;;;;;;;20.20;90.06;99423.59;1712458;83;21156;-69
2021/06/25 00:07:36;;;;;;;26.85;6.05;;;;;;;20.16;90.23;99431.13;1711555;83;21550;-69
2021/06/25 00:10:05;;;;;;;21.73;6.47;;;;;;;20.12;90.43;99432.48;1700778;83;21020;-69
2021/06/25 00:12:31;;;;;;;21.68;5.75;;;;;;;20.08;90.70;99438.61;1694026;83;21040;-69
2021/06/25 00:14:58;;;;;;;13.05;5.65;;;;;;;20.06;90.93;99437.59;1697135;83;22636;-70
2021/06/25 00:17:25;;;;;;;14.65;5.28;;;;;;;20.03;90.79;99432.78;1664219;83;21151;-69
2021/06/25 00:19:51;;;;;;;26.45;6.08;;;;;;;19.98;90.74;99428.95;1690587;82;20963;-69
2021/06/25 00:22:17;;;;;;;18.07;5.90;;;;;;;19.95;90.79;99421.94;1683138;83;21029;-69
2021/06/25 00:24:44;;;;;;;15.08;5.90;;;;;;;19.89;90.58;99426.25;1700680;83;20984;-69
2021/06/25 00:27:11;;;;;;;14.43;5.22;;;;;;;19.84;90.88;99424.60;1692305;83;21610;-69
2021/06/25 00:29:38;;;;;;;22.17;6.25;;;;;;;19.81;91.31;99423.97;1690767;83;21894;-68
2021/06/25 00:32:05;;;;;;;22.73;6.30;;;;;;;19.77;91.39;99416.97;1705206;82;21534;-69
2021/06/25 00:34:32;;;;;;;17.45;5.33;;;;;;;19.75;91.53;99416.55;1686986;83;21008;-69
2021/06/25 00:37:00;;;;;;;22.02;6.30;;;;;;;19.73;91.44;99410.55;1659149;83;21025;-69
2021/06/25 00:39:27;;;;;;;18.32;5.70;;;;;;;19.69;91.44;99410.30;1668898;84;21036;-69
2021/06/25 00:41:53;;;;;;;14.58;5.45;;;;;;;19.66;91.56;99404.90;1683579;83;21977;-68
2021/06/25 00:44:21;;;;;;;30.72;6.70;;;;;;;19.65;91.67;99408.86;1691962;81;21015;-69
2021/06/25 00:46:48;;;;;;;14.63;6.60;;;;;;;19.64;91.78;99401.69;1731066;81;20889;-69
2021/06/25 00:49:15;;;;;;;20.25;6.55;;;;;;;19.64;91.79;99398.91;1721359;82;21040;-69
2021/06/25 00:51:41;;;;;;;16.93;6.12;;;;;;;19.67;91.81;99398.73;1705501;83;21038;-69
2021/06/25 00:54:10;;;;;;;18.82;6.85;;;;;;;19.66;91.84;99395.16;1711988;82;21156;-69
2021/06/25 00:56:37;;;;;;;22.15;5.80;;;;;;;19.66;91.91;99395.16;1719849;82;20965;-69
2021/06/25 00:59:05;;;;;;;24.05;6.72;;;;;;;19.67;91.97;99402.33;1685592;83;21010;-68
2021/06/25 01:01:33;;;;;;;19.17;5.53;;;;;;;19.68;92.11;99408.11;1688997;83;21001;-68
2021/06/25 01:04:00;;;;;;;23.55;6.37;;;;;;;19.66;91.99;99404.09;1698553;84;20871;-68
2021/06/25 01:06:28;;;;;;;15.38;6.45;;;;;;;19.61;91.82;99408.05;1700174;84;21136;-69
2021/06/25 01:08:57;;;;;;;22.50;6.22;;;;;;;19.56;92.28;99404.80;1676194;84;21000;-69
2021/06/25 01:11:24;;;;;;;19.82;6.42;;;;;;;19.54;92.64;99408.55;1675818;84;21017;-69
2021/06/25 01:13:51;;;;;;;32.45;11.53;;;;;;;19.54;92.58;99416.91;1684979;83;21014;-68
2021/06/25 01:16:18;;;;;;;22.02;8.03;;;;;;;19.50;92.26;99413.24;1684448;83;21124;-69
2021/06/25 01:18:44;;;;;;;26.95;8.95;;;;;;;19.48;92.19;99408.64;1677877;84;21842;-69
2021/06/25 01:21:11;;;;;;;22.40;7.70;;;;;;;19.44;92.11;99403.03;1683217;84;21022;-68
2021/06/25 01:23:39;;;;;;;27.15;8.23;;;;;;;19.41;92.24;99410.16;1691882;84;21037;-68
2021/06/25 01:26:07;;;;;;;26.12;7.37;;;;;;;19.38;92.19;99412.30;1687769;84;21034;-68
2021/06/25 01:28:53;;;;;;;19.32;6.60;;;;;;;19.37;92.40;99419.05;1673379;84;21036;-69
2021/06/25 01:31:20;;;;;;;23.10;7.58;;;;;;;19.39;92.42;99415.89;1658051;85;22430;-68
2021/06/25 01:33:47;;;;;;;29.77;7.92;;;;;;;19.40;92.38;99409.94;1628346;87;21049;-68
2021/06/25 01:36:14;;;;;;;20.77;7.20;;;;;;;19.40;92.38;99408.55;1611626;86;21043;-68
2021/06/25 01:38:41;;;;;;;18.70;6.60;;;;;;;19.40;92.49;99402.18;1657592;82;20990;-69
2021/06/25 01:41:08;;;;;;;20.45;7.05;;;;;;;19.40;92.58;99400.79;1665839;83;21026;-68
2021/06/25 01:43:36;;;;;;;17.82;6.97;;;;;;;19.39;92.57;99401.38;1662750;83;21152;-68
2021/06/25 01:46:03;;;;;;;20.92;5.92;;;;;;;19.40;92.72;99397.41;1676713;85;21221;-69
2021/06/25 01:48:29;;;;;;;17.85;5.12;;;;;;;19.40;92.69;99393.83;1659259;83;21070;-68
2021/06/25 01:50:56;;;;;;;24.85;5.42;;;;;;;19.39;92.59;99397.20;1656026;85;21043;-69
2021/06/25 01:53:24;;;;;;;20.08;5.97;;;;;;;19.37;92.68;99395.98;1673956;85;21188;-67
2021/06/25 01:55:51;;;;;;;16.27;5.03;;;;;;;19.34;92.83;99394.75;1654904;85;21153;-68
2021/06/25 01:58:25;;;;;;;23.62;6.53;;;;;;;19.32;92.76;99399.09;1669150;83;21223;-67
2021/06/25 02:01:11;;;;;;;16.02;5.08;;;;;;;19.28;92.72;99403.81;1658054;84;21518;-68
2021/06/25 02:03:43;;;;;;;18.73;6.53;;;;;;;19.24;93.06;99402.95;1642433;85;21014;-69
2021/06/25 02:06:10;;;;;;;16.55;5.50;;;;;;;19.20;93.15;99405.69;1662245;85;21042;-68
2021/06/25 02:08:39;;;;;;;23.83;6.12;;;;;;;19.19;93.38;99410.24;1659098;85;21174;-69
2021/06/25 02:11:08;;;;;;;18.35;5.22;;;;;;;19.19;93.63;99417.20;1663616;85;20947;-68
2021/06/25 02:13:35;;;;;;;22.37;5.87;;;;;;;19.20;93.63;99419.60;1659530;85;20958;-68
2021/06/25 02:16:02;;;;;;;22.90;4.58;;;;;;;19.20;93.88;99418.80;1659844;85;21570;-68
2021/06/25 02:18:28;;;;;;;14.90;4.78;;;;;;;19.19;93.66;99422.17;1638321;85;20951;-68
2021/06/25 02:20:55;;;;;;;17.37;4.62;;;;;;;19.18;93.71;99420.57;1669585;85;23118;-69
2021/06/25 02:23:21;;;;;;;14.47;5.37;;;;;;;19.17;93.49;99418.97;1659832;83;21071;-68
2021/06/25 02:25:48;;;;;;;18.75;5.10;;;;;;;19.16;93.47;99423.52;1678714;85;21458;-68
2021/06/25 02:28:14;;;;;;;25.05;5.53;;;;;;;19.14;93.56;99422.50;1667273;85;21493;-68
2021/06/25 02:30:41;;;;;;;16.12;5.80;;;;;;;19.15;93.76;99418.54;1661684;84;21067;-68
2021/06/25 02:33:08;;;;;;;23.95;5.62;;;;;;;19.17;93.88;99413.98;1659052;85;21140;-68
2021/06/25 02:35:34;;;;;;;21.00;5.78;;;;;;;19.19;93.81;99418.59;1656439;83;21034;-68
2021/06/25 02:38:01;;;;;;;14.07;5.60;;;;;;;19.20;93.76;99423.78;1657592;85;21092;-68
2021/06/25 02:40:27;;;;;;;19.45;6.17;;;;;;;19.23;93.84;99413.87;1640147;86;21074;-68
2021/06/25 02:42:54;;;;;;;24.25;6.55;;;;;;;19.26;93.82;99414.52;1657913;85;20899;-69
2021/06/25 02:45:22;;;;;;;21.10;6.08;;;;;;;19.26;93.76;99404.77;1652571;85;21577;-67
2021/06/25 02:47:50;;;;;;;18.00;6.25;;;;;;;19.28;93.86;99401.03;1660464;83;20991;-68
2021/06/25 02:50:17;;;;;;;17.95;6.08;;;;;;;19.31;94.04;99401.66;1665189;83;21085;-68
2021/06/25 02:52:43;;;;;;;22.98;5.95;;;;;;;19.35;94.14;99399.73;1634478;86;21190;-68
2021/06/25 02:55:11;;;;;;;18.70;6.08;;;;;;;19.40;94.33;99402.98;1663779;83;21549;-69
2021/06/25 02:57:38;;;;;;;20.02;5.33;;;;;;;19.45;94.33;99400.45;1655481;83;21060;-69
2021/06/25 03:00:07;;;;;;;24.43;6.17;;;;;;;19.50;94.49;99401.52;1658247;84;21006;-68
2021/06/25 03:02:34;;;;;;;19.37;4.87;;;;;;;19.55;94.80;99404.00;1659854;84;21091;-69
2021/06/25 03:05:01;;;;;;;18.02;5.92;;;;;;;19.65;94.90;99407.47;1660167;86;21002;-68
2021/06/25 03:07:28;;;;;;;21.00;6.87;;;;;;;19.72;95.01;99405.36;1663509;84;21463;-69
2021/06/25 03:09:54;;;;;;;23.45;5.67;;;;;;;19.86;95.06;99407.51;1657128;83;21765;-70
2021/06/25 03:12:21;;;;;;;22.62;5.22;;;;;;;20.00;94.94;99403.48;1668151;85;20986;-68
2021/06/25 03:14:48;;;;;;;19.02;6.10;;;;;;;20.16;94.20;99398.48;1673754;84;21058;-69
2021/06/25 03:17:14;;;;;;;17.60;5.62;;;;;;;20.32;93.17;99396.81;1674624;84;21798;-69
2021/06/25 03:19:41;;;;;;;28.23;6.12;;;;;;;20.51;92.34;99393.82;1676212;85;20974;-69
2021/06/25 03:22:08;;;;;;;19.75;4.75;;;;;;;20.69;91.18;99390.58;1656418;85;21676;-69
2021/06/25 03:24:36;;;;;;;22.55;5.87;;;;;;;20.85;89.79;99391.66;1692594;82;20944;-69
2021/06/25 03:27:03;;;;;;;18.92;5.47;;;;;;;21.00;88.60;99384.98;1651667;85;21076;-68
2021/06/25 03:29:30;;;;;;;24.98;6.72;;;;;;;21.14;87.25;99386.27;1687332;83;21103;-69
2021/06/25 03:31:56;;;;;;;17.37;5.80;;;;;;;21.29;86.93;99376.80;1684368;83;21007;-68
2021/06/25 03:34:23;;;;;;;26.57;6.33;;;;;;;21.40;86.19;99382.61;1693101;83;22494;-69
2021/06/25 03:36:50;;;;;;;20.62;6.05;;;;;;;21.51;85.37;99383.25;1649857;84;21021;-69
2021/06/25 03:39:16;;;;;;;29.65;6.03;;;;;;;21.64;84.56;99378.32;1647233;85;20972;-69
2021/06/25 03:41:43;;;;;;;23.85;5.92;;;;;;;21.75;83.96;99374.97;1666228;84;21022;-68
2021/06/25 03:44:10;;;;;;;17.20;5.47;;;;;;;21.85;82.94;99371.20;1670110;85;21050;-68
2021/06/25 03:46:37;;;;;;;23.92;5.75;;;;;;;21.90;82.80;99366.02;1661596;83;21135;-69
2021/06/25 03:49:05;;;;;;;14.40;5.15;;;;;;;21.99;81.56;99360.02;1672684;83;20990;-67
2021/06/25 03:51:32;;;;;;;23.45;5.62;;;;;;;22.10;80.33;99358.08;1661988;83;21105;-68
2021/06/25 03:53:58;;;;;;;21.45;5.90;;;;;;;22.18;79.91;99349.90;1663164;83;21042;-69
2021/06/25 03:56:26;;;;;;;22.58;5.80;;;;;;;22.25;79.75;99347.11;1673941;84;21122;-68
2021/06/25 03:58:52;;;;;;;22.45;5.30;;;;;;;22.31;79.57;99349.70;1675534;85;21140;-71
2021/06/25 04:01:21;;;;;;;18.05;5.15;;;;;;;22.38;79.87;99347.52;1663892;85;21058;-70
2021/06/25 04:03:48;;;;;;;39.38;6.15;;;;;;;22.44;79.33;99354.91;1657287;83;21232;-72
2021/06/25 04:06:15;;;;;;;25.00;5.08;;;;;;;22.48;78.74;99349.51;1635571;86;21548;-70
2021/06/25 04:08:41;;;;;;;20.20;5.00;;;;;;;22.55;78.15;99343.08;1661105;84;21517;-71
2021/06/25 04:11:08;;;;;;;20.00;5.10;;;;;;;22.64;76.98;99339.27;1659665;84;21108;-70
2021/06/25 04:13:36;;;;;;;19.12;4.55;;;;;;;22.72;77.34;99338.87;1632167;85;21082;-69
2021/06/25 04:16:04;;;;;;;15.93;4.35;;;;;;;22.81;76.96;99332.88;1657881;84;20986;-70
2021/06/25 04:18:32;;;;;;;16.77;4.97;;;;;;;22.89;75.42;99327.47;1666741;83;21110;-70
2021/06/25 04:20:59;;;;;;;13.98;5.25;;;;;;;22.99;75.63;99339.24;1665638;84;21474;-70
2021/06/25 04:23:25;;;;;;;27.87;5.72;;;;;;;23.08;75.59;99331.02;1662548;85;21132;-70
2021/06/25 04:25:52;;;;;;;26.57;5.12;;;;;;;23.17;74.13;99336.36;1665997;85;20999;-71
2021/06/25 04:28:20;;;;;;;19.98;5.33;;;;;;;23.25;72.82;99335.73;1660952;84;20987;-70
2021/06/25 04:30:46;;;;;;;25.45;5.12;;;;;;;23.35;72.99;99343.30;1658083;85;21427;-70
2021/06/25 04:33:14;;;;;;;26.90;6.75;;;;;;;23.43;72.99;99342.66;1659945;85;21101;-73
2021/06/25 04:35:42;;;;;;;27.90;7.55;;;;;;;23.53;73.62;99347.42;1657703;83;21040;-70
2021/06/25 04:38:09;;;;;;;35.52;8.63;;;;;;;23.62;74.05;99347.20;1656236;84;20994;-69
2021/06/25 04:40:41;;;;;;;28.80;6.45;;;;;;;23.75;74.73;99343.91;1660056;83;20958;-72
2021/06/25 04:43:08;;;;;;;25.35;6.35;;;;;;;23.85;74.14;99340.25;1664536;84;21023;-69
2021/06/25 04:45:35;;;;;;;24.75;6.25;;;;;;;23.95;73.76;99340.78;1669225;83;21077;-68
2021/06/25 04:48:04;;;;;;;27.45;6.30;;;;;;;24.04;73.06;99339.72;1660321;83;21123;-69
2021/06/25 04:50:32;;;;;;;58.52;7.37;;;;;;;24.15;72.16;99340.44;1634678;83;21015;-69
2021/06/25 04:52:58;;;;;;;24.98;6.25;;;;;;;24.28;71.78;99343.55;1665619;85;21092;-69
2021/06/25 04:55:27;;;;;;;21.33;5.70;;;;;;;24.39;71.91;99333.64;1668635;84;21434;-70
2021/06/25 04:57:54;;;;;;;18.32;5.15;;;;;;;24.51;71.74;99336.75;1635868;85;21003;-69
2021/06/25 05:00:23;;;;;;;23.38;6.62;;;;;;;24.64;71.58;99336.42;1658642;85;21132;-69
2021/06/25 05:02:50;;;;;;;19.90;5.22;;;;;;;24.76;71.49;99337.12;1660226;83;20995;-69
2021/06/25 05:05:16;;;;;;;27.73;5.97;;;;;;;24.88;71.50;99343.58;1659972;83;21644;-69
2021/06/25 05:07:44;;;;;;;41.05;7.33;;;;;;;25.00;71.09;99355.72;1665073;83;21074;-69
2021/06/25 05:10:11;;;;;;;23.67;6.25;;;;;;;25.09;69.76;99352.42;1633358;86;21065;-69
2021/06/25 05:12:39;;;;;;;25.95;5.50;;;;;;;25.19;69.85;99356.52;1626481;86;22022;-69
2021/06/25 05:15:08;;;;;;;22.40;5.62;;;;;;;25.30;69.40;99352.97;1661605;83;21073;-69
2021/06/25 05:17:35;;;;;;;23.45;5.78;;;;;;;25.40;68.51;99356.88;1657831;85;21062;-69
2021/06/25 05:20:04;;;;;;;19.17;5.30;;;;;;;25.51;68.86;99353.90;1671774;84;21089;-68
2021/06/25 05:22:31;;;;;;;18.73;6.03;;;;;;;25.65;69.27;99351.73;1661341;84;21034;-68
2021/06/25 05:24:58;;;;;;;29.10;5.37;;;;;;;25.77;68.56;99360.81;1658858;84;21213;-69
2021/06/25 05:27:25;;;;;;;30.82;5.53;;;;;;;25.90;68.31;99356.22;1664715;85;20989;-68
2021/06/25 05:29:53;;;;;;;23.80;5.42;;;;;;;25.99;67.14;99370.55;1669520;85;21063;-69
2021/06/25 05:32:19;;;;;;;38.90;7.30;;;;;;;26.09;67.29;99378.61;1671074;84;21031;-69
2021/06/25 05:34:45;;;;;;;26.87;6.10;;;;;;;26.17;65.85;99385.12;1670703;85;21186;-69
2021/06/25 05:37:12;;;;;;;30.72;8.08;;;;;;;26.26;64.51;99387.39;1660260;85;21889;-69
2021/06/25 05:39:40;;;;;;;33.65;7.55;;;;;;;26.33;64.51;99390.13;1653159;83;21105;-69
2021/06/25 05:42:08;;;;;;;26.20;6.55;;;;;;;26.38;65.37;99388.86;1669823;83;21047;-69
2021/06/25 05:44:35;;;;;;;29.80;6.83;;;;;;;26.44;66.61;99387.15;1672923;84;21097;-69
2021/06/25 05:47:04;;;;;;;25.15;6.20;;;;;;;26.52;67.04;99395.66;1653354;83;21485;-69
2021/06/25 05:49:32;;;;;;;25.15;6.33;;;;;;;26.58;67.18;99396.12;1638254;84;21142;-70
2021/06/25 05:51:58;;;;;;;20.68;5.22;;;;;;;26.63;66.81;99399.07;1661631;85;21043;-70
2021/06/25 05:54:25;;;;;;;28.50;5.35;;;;;;;26.67;67.32;99398.40;1653976;85;21110;-69
2021/06/25 05:56:51;;;;;;;25.75;4.95;;;;;;;26.74;67.64;99405.93;1665940;85;22248;-70
2021/06/25 05:59:18;;;;;;;20.52;6.00;;;;;;;26.78;68.16;99406.05;1634034;86;21162;-70
2021/06/25 06:01:45;;;;;;;19.32;5.75;;;;;;;26.85;67.82;99407.34;1665833;83;21753;-69
2021/06/25 06:04:12;;;;;;;33.00;6.78;;;;;;;26.95;68.85;99411.98;1660248;83;21046;-70
2021/06/25 06:06:38;;;;;;;35.80;6.15;;;;;;;27.05;67.15;99412.26;1665599;84;21550;-68
2021/06/25 06:09:05;;;;;;;29.15;6.03;;;;;;;27.15;67.22;99418.31;1636381;85;20972;-69
2021/06/25 06:11:33;;;;;;;31.68;7.30;;;;;;;27.27;67.16;99421.87;1664039;85;21058;-69
2021/06/25 06:13:59;;;;;;;37.25;6.62;;;;;;;27.37;66.86;99417.27;1629357;86;21197;-69
2021/06/25 06:16:26;;;;;;;26.52;6.45;;;;;;;27.49;66.23;99415.22;1697793;82;20972;-69
2021/06/25 06:18:53;;;;;;;35.35;6.08;;;;;;;27.66;65.09;99420.34;1685906;83;21059;-69
2021/06/25 06:21:21;;;;;;;37.93;6.30;;;;;;;27.76;61.86;99426.34;1615614;85;21157;-70
2021/06/25 06:32:12;;;;;;;29.67;5.60;;;;;;;28.06;59.58;99441.61;1653178;85;21070;-69
2021/06/25 06:34:35;;;;;;;35.50;5.70;;;;;;;28.12;58.75;99441.89;1651202;84;21039;-69
2021/06/25 06:37:02;;;;;;;31.90;5.42;;;;;;;28.21;59.01;99440.09;1639010;86;21127;-69
2021/06/25 06:39:29;;;;;;;34.53;6.22;;;;;;;28.30;59.74;99438.09;1656810;84;21132;-69
2021/06/25 06:41:59;;;;;;;30.62;4.83;;;;;;;28.39;58.72;99431.81;1637924;85;21043;-70
2021/06/25 06:44:25;;;;;;;29.32;5.28;;;;;;;28.47;58.50;99429.79;1670438;85;21140;-70
2021/06/25 06:46:52;;;;;;;16.65;4.33;;;;;;;28.52;56.35;99436.33;1659286;84;21029;-70
2021/06/25 06:49:18;;;;;;;31.17;5.22;;;;;;;28.52;56.41;99434.12;1647026;85;21043;-69
2021/06/25 06:51:45;;;;;;;30.55;5.08;;;;;;;28.55;56.94;99438.89;1662413;84;21148;-68
2021/06/25 06:54:13;;;;;;;27.85;5.55;;;;;;;28.62;56.78;99435.89;1663426;84;21500;-70
2021/06/25 06:56:41;;;;;;;30.35;6.12;;;;;;;28.70;57.18;99440.12;1648323;85;21070;-68
2021/06/25 06:59:07;;;;;;;27.58;5.35;;;;;;;28.78;56.63;99438.72;1658783;84;21102;-69
2021/06/25 07:01:35;;;;;;;24.30;6.42;;;;;;;28.86;57.67;99442.98;1652760;86;21008;-69
2021/06/25 07:04:02;;;;;;;27.22;4.78;;;;;;;28.97;56.66;99437.65;1652178;84;21145;-70
2021/06/25 07:06:29;;;;;;;55.05;6.58;;;;;;;29.05;58.36;99437.02;1657995;84;20995;-70
2021/06/25 07:08:56;;;;;;;27.00;5.15;;;;;;;29.15;57.64;99440.81;1653028;84;20896;-69
2021/06/25 07:11:23;;;;;;;33.18;5.55;;;;;;;29.24;56.65;99433.28;1652327;84;20948;-70
2021/06/25 07:13:52;;;;;;;30.08;5.35;;;;;;;29.27;56.19;99427.36;1667869;85;21005;-74
2021/06/25 07:16:20;;;;;;;27.52;5.30;;;;;;;29.29;55.71;99427.70;1654846;84;21164;-74
2021/06/25 07:18:48;;;;;;;19.85;4.72;;;;;;;29.36;56.10;99424.69;1668955;84;21038;-75
2021/06/25 07:21:18;;;;;;;32.38;6.22;;;;;;;29.47;55.31;99422.35;1671151;84;20979;-74
2021/06/25 07:23:45;;;;;;;32.83;5.28;;;;;;;29.51;55.68;99424.46;1654213;85;21045;-78
2021/06/25 07:26:11;;;;;;;20.92;4.53;;;;;;;29.57;55.94;99425.50;1669834;85;21059;-77
2021/06/25 07:28:38;;;;;;;21.20;4.87;;;;;;;29.68;55.48;99421.58;1631355;85;21895;-77
2021/06/25 07:31:05;;;;;;;33.13;5.47;;;;;;;29.76;54.70;99430.03;1632500;86;21027;-76
2021/06/25 07:33:32;;;;;;;21.42;4.97;;;;;;;29.81;54.73;99426.64;1632384;85;21022;-83
2021/06/25 07:36:00;;;;;;;30.57;4.97;;;;;;;29.90;53.60;99421.13;1634597;86;21071;-82
2021/06/25 07:38:26;;;;;;;23.20;4.97;;;;;;;29.98;53.06;99428.16;1633478;86;21116;-78
2021/06/25 07:40:53;;;;;;;24.35;4.62;;;;;;;30.03;52.92;99425.42;1635885;85;21133;-84
2021/06/25 07:43:20;;;;;;;25.72;5.97;;;;;;;30.09;52.56;99426.42;1638855;85;21103;-77
2021/06/25 07:45:47;;;;;;;20.55;4.45;;;;;;;30.18;52.40;99428.75;1631610;85;21062;-77
2021/06/25 07:48:15;;;;;;;28.02;5.50;;;;;;;30.30;52.08;99424.34;1642932;85;21554;-74
2021/06/25 07:50:43;;;;;;;17.02;4.85;;;;;;;30.46;51.51;99426.27;1636302;85;21052;-73
2021/06/25 07:53:10;;;;;;;25.68;5.17;;;;;;;30.64;50.87;99432.14;1632676;86;21131;-76
2021/06/25 07:55:42;;;;;;;21.80;5.08;;;;;;;30.81;50.30;99427.94;1629765;85;20964;-81
2021/06/25 07:58:07;;;;;;;28.38;5.00;;;;;;;30.94;51.10;99437.03;1630521;85;21589;-75
2021/06/25 08:00:33;;;;;;;18.45;4.70;;;;;;;31.04;50.74;99434.46;1656991;85;21949;-76
2021/06/25 08:02:59;;;;;;;25.02;4.45;;;;;;;31.14;49.10;99439.00;1675797;85;21011;-79
2021/06/25 08:05:26;;;;;;;31.00;5.00;;;;;;;31.19;48.91;99434.95;1652592;85;21485;-74
2021/06/25 08:07:53;;;;;;;23.77;3.95;;;;;;;31.24;46.67;99439.84;1656016;85;20940;-74
2021/06/25 08:10:19;;;;;;;24.85;4.42;;;;;;;31.28;46.41;99434.84;1648330;86;20990;-74
2021/06/25 08:12:49;;;;;;;21.35;4.87;;;;;;;31.36;45.07;99431.30;1657783;85;21034;-75
2021/06/25 08:15:19;;;;;;;19.85;4.10;;;;;;;31.47;44.87;99439.42;1667162;85;21074;-75
2021/06/25 08:17:47;;;;;;;23.55;4.03;;;;;;;31.54;44.79;99436.33;1656243;84;21184;-75
2021/06/25 08:20:14;;;;;;;23.02;4.53;;;;;;;31.66;43.34;99439.73;1677733;83;20948;-75
2021/06/25 08:22:40;;;;;;;26.57;4.35;;;;;;;31.83;42.48;99436.86;1657101;85;20970;-74
2021/06/25 08:25:11;;;;;;;13.35;3.65;;;;;;;32.08;40.08;99433.69;1655743;85;21185;-75
2021/06/25 08:27:37;;;;;;;20.80;3.85;;;;;;;32.35;38.33;99437.33;1659293;85;21038;-74
2021/06/25 08:30:06;;;;;;;26.70;5.25;;;;;;;32.59;37.46;99432.66;1663858;83;21946;-73
2021/06/25 08:32:32;;;;;;;16.07;3.60;;;;;;;32.83;38.19;99427.23;1656551;84;21003;-78
2021/06/25 08:34:58;;;;;;;13.83;4.47;;;;;;;33.12;37.60;99427.57;1658961;84;21047;-76
2021/06/25 08:37:25;;;;;;;24.12;4.70;;;;;;;33.40;39.34;99424.14;1662900;84;21708;-76
2021/06/25 08:39:51;;;;;;;18.40;4.10;;;;;;;33.73;39.91;99421.40;1661557;83;21022;-76
2021/06/25 08:42:18;;;;;;;17.23;4.33;;;;;;;34.05;39.53;99418.52;1656334;83;21100;-74
2021/06/25 08:44:44;;;;;;;17.32;4.25;;;;;;;34.29;39.23;99414.28;1660024;83;21077;-73
2021/06/25 08:47:11;;;;;;;14.90;3.98;;;;;;;34.36;37.45;99416.03;1647060;85;21022;-75
2021/06/25 08:49:40;;;;;;;19.32;3.33;;;;;;;34.38;37.49;99416.34;1639483;85;20959;-77
2021/06/25 08:52:07;;;;;;;16.30;3.67;;;;;;;34.44;37.33;99412.35;1636431;86;21146;-77
2021/06/25 08:54:34;;;;;;;21.73;3.67;;;;;;;34.59;36.84;99409.59;1630068;85;21141;-76
2021/06/25 08:57:04;;;;;;;17.37;3.58;;;;;;;34.78;34.19;99421.02;1636796;85;21599;-77
2021/06/25 08:59:30;;;;;;;16.07;2.80;;;;;;;34.83;34.61;99418.80;1657322;84;21580;-77
2021/06/25 09:01:58;;;;;;;14.23;3.47;;;;;;;34.81;30.55;99418.50;1672194;82;21593;-75
2021/06/25 09:04:40;;;;;;;17.23;3.30;;;;;;;34.80;32.16;99419.73;1656458;83;21015;-74
2021/06/25 09:07:08;;;;;;;8.73;2.70;;;;;;;34.85;31.49;99414.19;1676559;84;21136;-75
2021/06/25 09:09:48;;;;;;;11.48;3.17;;;;;;;34.94;31.74;99409.06;1663136;84;21097;-74
2021/06/25 09:12:22;;;;;;;10.48;2.58;;;;;;;35.15;31.25;99417.95;1681564;84;21134;-74
2021/06/25 09:15:05;;;;;;;12.40;3.27;;;;;;;35.40;30.21;99410.93;1662986;85;21493;-74
2021/06/25 09:17:35;;;;;;;16.48;3.33;;;;;;;35.41;30.00;99411.08;1688634;84;21010;-75
2021/06/25 09:20:05;;;;;;;11.85;3.33;;;;;;;35.47;29.71;99406.27;1678602;83;21139;-76
2021/06/25 09:22:32;;;;;;;12.68;3.12;;;;;;;35.55;31.89;99406.68;1686696;83;21592;-76
2021/06/25 09:25:07;;;;;;;18.00;3.40;;;;;;;35.65;30.37;99399.60;1654097;85;21027;-77
2021/06/25 09:27:34;;;;;;;11.20;2.55;;;;;;;35.78;30.95;99402.17;1678165;85;20943;-76
2021/06/25 09:30:10;;;;;;;13.40;3.67;;;;;;;35.89;30.84;99399.52;1714100;83;21077;-76
2021/06/25 09:32:38;;;;;;;12.13;3.42;;;;;;;36.00;31.99;99409.06;1681542;81;21569;-76
2021/06/25 09:35:17;;;;;;;12.43;3.50;;;;;;;36.23;32.45;99408.80;1680182;83;21110;-75
2021/06/25 09:37:48;;;;;;;12.30;3.00;;;;;;;36.32;30.49;99405.86;1678764;85;21042;-75
2021/06/25 09:40:16;;;;;;;18.07;2.80;;;;;;;36.44;31.17;99401.72;1669555;85;21035;-75
2021/06/25 09:42:45;;;;;;;15.75;3.08;;;;;;;36.49;30.79;99400.38;1685395;84;21007;-77
2021/06/25 09:45:16;;;;;;;10.90;3.05;;;;;;;36.50;30.13;99395.45;1658117;85;22222;-76
2021/06/25 09:47:44;;;;;;;;;;;;;;;36.41;30.84;99392.06;1661410;83;20985;-75
2021/06/25 09:50:16;;;;;;;15.75;3.85;;;;;;;36.38;30.76;99388.16;1657948;85;20130;-75
2021/06/25 09:52:51;;;;;;;18.30;3.80;;;;;;;36.33;31.76;99392.36;1665873;84;21118;-73
2021/06/25 09:55:58;;;;;;;18.70;4.33;;;;;;;36.25;32.47;99394.02;1660310;84;21470;-76
2021/06/25 09:58:30;;;;;;;21.73;3.08;;;;;;;36.19;32.68;99384.57;1643679;86;21794;-76
2021/06/25 10:01:25;;;;;;;19.35;3.98;;;;;;;36.16;32.39;99381.27;1654774;83;21003;-76
2021/06/25 10:04:01;;;;;;;11.45;3.80;;;;;;;36.05;32.19;99377.59;1664615;84;21082;-76
2021/06/25 10:06:32;;;;;;;9.58;3.00;;;;;;;36.02;32.59;99372.22;1663788;85;21629;-73
2021/06/25 10:08:59;;;;;;;12.58;3.12;;;;;;;36.05;32.33;99371.23;1680604;82;21063;-75
2021/06/25 10:11:28;;;;;;;15.58;2.92;;;;;;;35.94;31.18;99361.05;1661550;85;21123;-75
2021/06/25 10:13:57;;;;;;;18.45;3.62;;;;;;;35.98;31.79;99363.07;1663748;85;21058;-77
2021/06/25 10:16:24;;;;;;;20.40;3.33;;;;;;;36.01;30.71;99361.30;1646837;85;21062;-77
2021/06/25 10:18:52;;;;;;;11.43;2.90;;;;;;;36.06;30.05;99357.10;1664141;84;21006;-74
2021/06/25 10:21:25;;;;;;;15.48;2.85;;;;;;;36.08;32.28;99360.10;1668277;83;21042;-74
2021/06/25 10:23:55;;;;;;;14.30;3.90;;;;;;;36.08;30.30;99355.17;1634124;85;21237;-76
2021/06/25 10:26:25;;;;;;;10.15;3.45;;;;;;;36.11;30.29;99353.41;1639040;86;20959;-75
2021/06/25 10:28:53;;;;;;;9.85;2.92;;;;;;;36.11;29.14;99354.83;1666144;83;21045;-74
2021/06/25 10:31:22;;;;;;;15.90;3.10;;;;;;;36.16;29.56;99368.41;1655943;83;21593;-76
2021/06/25 10:33:50;;;;;;;10.82;3.52;;;;;;;36.21;30.64;99365.65;1630075;86;21192;-72
2021/06/25 10:36:23;;;;;;;12.28;3.70;;;;;;;36.21;30.55;99366.29;1676373;82;21968;-69
2021/06/25 10:38:50;;;;;;;9.33;3.15;;;;;;;36.26;28.94;99372.73;1660956;84;20995;-69
2021/06/25 10:41:18;;;;;;;16.60;3.45;;;;;;;36.19;29.07;99367.42;1655539;84;32543;-68
2021/06/25 10:43:53;;;;;;;15.50;2.70;;;;;;;36.20;30.31;99368.36;1671536;85;21091;-67
2021/06/25 10:46:37;;;;;;;17.20;3.37;;;;;;;36.30;32.30;99366.98;1670976;85;20973;-69
2021/06/25 10:49:09;;;;;;;11.35;3.20;;;;;;;36.33;29.76;99363.14;1670103;85;22015;-69
2021/06/25 10:51:39;;;;;;;13.90;3.22;;;;;;;36.30;29.21;99364.77;1674335;85;21109;-67
2021/06/25 10:54:18;;;;;;;10.72;2.70;;;;;;;36.37;28.01;99368.65;1667757;85;22245;-70
2021/06/25 10:56:53;;;;;;;5.72;1.95;;;;;;;36.47;25.52;99365.78;1681018;85;21069;-67
2021/06/25 10:59:28;;;;;;;14.50;2.60;;;;;;;36.59;27.55;99366.73;1657431;85;21117;-71
2021/06/25 11:02:04;;;;;;;12.15;2.72;;;;;;;36.73;27.44;99360.81;1655652;84;21956;-73
2021/06/25 11:04:42;;;;;;;14.70;2.42;;;;;;;36.75;27.29;99356.20;1659778;84;21501;-67
2021/06/25 11:07:17;;;;;;;16.87;3.42;;;;;;;36.67;26.15;99360.09;1652665;84;21075;-69
2021/06/25 11:09:54;;;;;;;14.33;2.80;;;;;;;36.64;27.17;99354.58;1661459;84;21627;-71
2021/06/25 11:12:38;;;;;;;13.68;2.77;;;;;;;36.68;26.54;99353.09;1674430;85;21584;-69
2021/06/25 11:15:10;;;;;;;11.50;2.45;;;;;;;36.70;26.42;99359.09;1655217;84;21132;-69
2021/06/25 11:17:58;;;;;;;12.78;3.08;;;;;;;36.64;26.13;99351.72;1655909;85;21208;-69
2021/06/25 11:20:36;;;;;;;9.58;3.45;;;;;;;36.75;27.92;99350.47;1658523;85;21104;-71
2021/06/25 11:23:12;;;;;;;27.65;7.97;;;;;;;36.90;27.84;99354.70;1705495;83;21007;-70
2021/06/25 11:25:59;;;;;;;11.25;2.90;;;;;;;37.03;29.21;99356.52;1714010;82;21050;-73
2021/06/25 11:28:38;;;;;;;12.03;3.00;;;;;;;37.17;26.44;99352.00;1670739;84;21201;-73
2021/06/25 11:31:19;;;;;;;16.42;2.87;;;;;;;37.36;27.05;99354.72;1642786;84;20954;-73
2021/06/25 11:33:54;;;;;;;16.30;3.20;;;;;;;37.43;26.19;99356.35;1659632;83;21564;-74
2021/06/25 11:36:51;;;;;;;8.55;2.35;;;;;;;37.50;26.48;99350.18;1647750;85;21118;-72
2021/06/25 11:39:21;;;;;;;7.30;2.27;;;;;;;37.54;27.11;99347.88;1627571;85;21044;-74
2021/06/25 11:42:10;;;;;;;10.30;2.77;;;;;;;37.58;26.04;99344.90;1629367;86;21725;-75